1888 Hurricane NOT_NAMED (1888322N23305)


IBTrACS version v04r00. Visit IBTrACS website for data access.
Please direct all questions to the IBTrACS Q and A forum

Storm track - Intensity - Wind Radii - Intensity Data - Source Data - All data

Summary Information

Storm ID 1888322N23305
Start Nov 17 00Z
Landfall Nov 28 18Z, Nov 29 09Z, Nov 30 09Z, Nov 30 15Z
Max Intensity 85 kt (Nov 21 00Z)
End Dec 2 18Z
ATCF IDs AL091888
Track status Best track data.

Storm track plot

Map of storm track

Intensity plots

Map of storm track

Radial wind information

No radial wind information for this storm


Position and Intensity Table

BASIN ISO_TIME_________ NATURE LAT LON WMO WIND USA WIND MLC WIND
degrees north degrees east kts kts kts
NA 1888-11-17 00:00:00 TS 23.33 -55.43 50 50 50
NA 03:00:00 TS 23.49 -55.79 52 42
NA 06:00:00 TS 23.63 -56.13 55 55 35
NA 09:00:00 TS 23.78 -56.45 57 37
NA 12:00:00 TS 23.93 -56.77 60 60 40
NA 15:00:00 TS 24.13 -57.14 60 42
NA 18:00:00 TS 24.33 -57.53 60 60 45
NA 21:00:00 TS 24.54 -57.92 60 47
NA 1888-11-18 00:00:00 TS 24.73 -58.30 60 60 50
NA 03:00:00 TS 24.89 -58.69 60 52
NA 06:00:00 TS 25.03 -59.07 60 60 55
NA 09:00:00 TS 25.18 -59.42 60 55
NA 12:00:00 TS 25.30 -59.77 60 60 55
NA 15:00:00 TS 25.39 -60.15 60 55
NA 18:00:00 TS 25.47 -60.53 60 60 55
NA 21:00:00 TS 25.57 -60.91 60 57
NA 1888-11-19 00:00:00 TS 25.67 -61.30 60 60 60
NA 03:00:00 TS 25.75 -61.70 60 62
NA 06:00:00 TS 25.83 -62.10 60 60 65
NA 09:00:00 TS 25.93 -62.48 60 67
NA 12:00:00 TS 26.03 -62.87 60 60 70
NA 15:00:00 TS 26.14 -63.28 60 70
NA 18:00:00 TS 26.27 -63.70 60 60 70
NA 21:00:00 TS 26.43 -64.12 60 72
NA 1888-11-20 00:00:00 TS 26.60 -64.53 60 60 75
NA 03:00:00 TS 26.74 -64.96 60 75
NA 06:00:00 TS 26.90 -65.37 60 60 75
NA 09:00:00 TS 27.11 -65.80 60 77
NA 12:00:00 TS 27.30 -66.13 60 60 80
NA 15:00:00 TS 27.42 -66.27 62 80
NA 18:00:00 TS 27.39 -66.32 65 65 80
NA 21:00:00 TS 27.34 -66.50 65 82
NA 1888-11-21 00:00:00 TS 27.29 -66.87 65 65 85
NA 03:00:00 TS 27.30 -67.55 67
NA 06:00:00 TS 27.50 -68.00 70 70
NA 09:00:00 TS 27.60 -68.36 70
NA 12:00:00 TS 27.70 -68.70 70 70
NA 15:00:00 TS 27.89 -69.08 70
NA 18:00:00 TS 28.10 -69.50 70 70
NA 21:00:00 TS 28.25 -69.99 72
NA 1888-11-22 00:00:00 TS 28.40 -70.50 75 75
NA 03:00:00 TS 28.58 -70.96 75
NA 06:00:00 TS 28.80 -71.40 75 75
NA 09:00:00 TS 29.06 -71.87 77
NA 12:00:00 TS 29.30 -72.30 80 80
NA 15:00:00 TS 29.47 -72.62 80
NA 18:00:00 TS 29.60 -72.90 80 80
NA 21:00:00 TS 29.70 -73.19 80
NA 1888-11-23 00:00:00 TS 29.80 -73.50 80 80
NA 03:00:00 TS 29.94 -73.86 82
NA 06:00:00 TS 30.10 -74.20 85 85
NA 09:00:00 TS 30.28 -74.47 85
NA 12:00:00 TS 30.50 -74.70 85 85
NA 15:00:00 TS 30.74 -74.91 85
NA 18:00:00 TS 31.00 -75.10 85 85
NA 21:00:00 TS 31.24 -75.31 85
NA 1888-11-24 00:00:00 TS 31.50 -75.50 85 85
NA 03:00:00 TS 31.79 -75.69 85
NA 06:00:00 TS 32.10 -75.80 85 85
NA 09:00:00 TS 32.41 -75.79 85
NA 12:00:00 TS 32.70 -75.70 85 85
NA 15:00:00 TS 32.91 -75.61 85
NA 18:00:00 TS 33.10 -75.50 85 85
NA 21:00:00 TS 33.35 -75.35 85
NA 1888-11-25 00:00:00 TS 33.60 -75.20 85 85
NA 03:00:00 TS 33.80 -75.10 85
NA 06:00:00 TS 34.00 -75.00 85 85
NA 09:00:00 TS 34.22 -74.87 85
NA 12:00:00 TS 34.50 -74.70 85 85
NA 15:00:00 TS 34.88 -74.47 85
NA 18:00:00 TS 35.30 -74.20 85 85
NA 21:00:00 TS 35.69 -73.91 82
NA 1888-11-26 00:00:00 ET 36.10 -73.60 80 80
NA 03:00:00 ET 36.53 -73.31 80
NA 06:00:00 ET 37.00 -73.00 80 80
NA 09:00:00 ET 37.53 -72.64 80
NA 12:00:00 ET 38.00 -72.30 80 80
NA 15:00:00 ET 38.26 -72.10 80
NA 18:00:00 ET 38.50 -71.90 80 80
NA 21:00:00 ET 38.89 -71.58 80
NA 1888-11-27 00:00:00 ET 39.30 -71.20 80 80
NA 03:00:00 ET 39.66 -70.80 80
NA 06:00:00 ET 40.00 -70.40 80 80
NA 09:00:00 ET 40.34 -70.03 80
NA 12:00:00 ET 40.70 -69.70 80 80
NA 15:00:00 ET 41.08 -69.40 80
NA 18:00:00 ET 41.50 -69.10 80 80
NA 21:00:00 ET 41.94 -68.76 80
NA 1888-11-28 00:00:00 ET 42.40 -68.40 80 80
NA 03:00:00 ET 42.86 -68.02 80
NA 06:00:00 ET 43.30 -67.60 80 80
NA 09:00:00 ET 43.71 -67.14 80
NA 12:00:00 ET 44.10 -66.60 80 80
NA 15:00:00 ET 44.46 -65.95 75
NA 18:00:00 ET 44.80 -65.20 70 70
NA 21:00:00 ET 45.16 -64.38 65
NA 1888-11-29 00:00:00 ET 45.50 -63.50 60 60
NA 03:00:00 ET 45.77 -62.60 55
NA 06:00:00 ET 46.00 -61.70 50 50
NA 09:00:00 ET 46.21 -60.81 47
NA 12:00:00 ET 46.40 -60.00 45 45
NA 15:00:00 ET 46.56 -59.31 45
NA 18:00:00 ET 46.70 -58.70 45 45
NA 21:00:00 ET 46.81 -58.11 45
NA 1888-11-30 00:00:00 ET 46.90 -57.50 45 45
NA 03:00:00 ET 47.01 -56.84 45
NA 06:00:00 ET 47.10 -56.10 45 45
NA 09:00:00 ET 47.16 -55.27 45
NA 12:00:00 ET 47.20 -54.30 45 45
NA 15:00:00 ET 47.21 -53.19 45
NA 18:00:00 ET 47.20 -52.00 45 45
NA 21:00:00 ET 47.20 -50.86 42
NA 1888-12-01 00:00:00 ET 47.20 -49.70 40 40
NA 03:00:00 ET 47.20 -48.50 45
NA 06:00:00 ET 47.20 -47.30 50 50
NA 09:00:00 ET 47.20 -46.14 52
NA 12:00:00 ET 47.20 -45.00 55 55
NA 15:00:00 ET 47.19 -43.85 55
NA 18:00:00 ET 47.20 -42.70 55 55
NA 21:00:00 ET 47.24 -41.55 57
NA 1888-12-02 00:00:00 ET 47.30 -40.40 60 60
NA 03:00:00 ET 47.35 -39.25 60
NA 06:00:00 ET 47.40 -38.10 60 60
NA 09:00:00 ET 47.42 -36.96 60
NA 12:00:00 ET 47.50 -35.80 60 60
NA 15:00:00 ET 47.71 -34.57 60
NA 18:00:00 ET 48.00 -33.30 60 60

Source Information

Agency Information
USA hurdat2-1851-2018-051019.txt:Line=6263:UNNAMED
TOKYO
CMA
HKO
NEWDELHI
REUNION
BOM
NADI
WELLINGTON
DS824
TD9636
TD9635
NEUMANN
MLC

All available IBTrACS Data

SEASON BASIN SUBBASIN ISO_TIME_________ NATURE LAT LON WMO WIND WMO AGENCY DIST2LAND LANDFALL IFLAG USA AGENCY USA ATCF_ID USA LAT USA LON USA STATUS USA WIND USA SSHS MLC LAT MLC LON MLC CLASS MLC WIND STORM SPEED STORM DIR
Year degrees north degrees east kts km km degrees north degrees east kts 1 degrees north degrees east kts kts degrees
1888 NA NA 1888-11-17 00:00:00 TS 23.33 -55.43 50 hurdat_atl 1192 1165 O____________O hurdat_atl AL091888 23.20 -56.00 TS 50 0 23.60 -54.30 TS 50 7 295
1888 NA NA 03:00:00 TS 23.49 -55.79 1165 1144 P____________P AL091888 23.35 -56.31 TS 52 0 23.75 -54.75 TS 42 7 295
1888 NA NA 06:00:00 TS 23.63 -56.13 55 hurdat_atl 1144 1123 O____________O hurdat_atl AL091888 23.50 -56.60 TS 55 0 23.90 -55.20 TS 35 7 296
1888 NA NA 09:00:00 TS 23.78 -56.45 1128 1108 P____________P AL091888 23.64 -56.84 TS 57 0 24.04 -55.65 TS 37 7 297
1888 NA NA 12:00:00 TS 23.93 -56.77 60 hurdat_atl 1099 1086 O____________O hurdat_atl AL091888 23.80 -57.10 TS 60 0 24.20 -56.10 TS 40 7 299
1888 NA NA 15:00:00 TS 24.13 -57.14 1086 1066 P____________P AL091888 23.99 -57.43 TS 60 0 24.39 -56.55 TS 42 8 300
1888 NA NA 18:00:00 TS 24.33 -57.53 60 hurdat_atl 1066 1048 O____________O hurdat_atl AL091888 24.20 -57.80 TS 60 0 24.60 -57.00 TS 45 8 300
1888 NA NA 21:00:00 TS 24.54 -57.92 1048 1031 P____________P AL091888 24.41 -58.15 TS 60 0 24.81 -57.45 TS 47 8 300
1888 NA NA 1888-11-18 00:00:00 TS 24.73 -58.30 60 hurdat_atl 1031 1017 O____________O hurdat_atl AL091888 24.60 -58.50 TS 60 0 25.00 -57.90 TS 50 8 297
1888 NA NA 03:00:00 TS 24.89 -58.69 1017 1004 P____________P AL091888 24.76 -58.86 TS 60 0 25.15 -58.35 TS 52 8 293
1888 NA NA 06:00:00 TS 25.03 -59.07 60 hurdat_atl 997 991 O____________O hurdat_atl AL091888 24.90 -59.20 TS 60 0 25.30 -58.80 TS 55 7 293
1888 NA NA 09:00:00 TS 25.18 -59.42 993 980 P____________P AL091888 25.01 -59.50 TS 60 0 25.50 -59.25 TS 55 7 293
1888 NA NA 12:00:00 TS 25.30 -59.77 60 hurdat_atl 975 963 O____________O hurdat_atl AL091888 25.10 -59.80 TS 60 0 25.70 -59.70 TS 55 7 288
1888 NA NA 15:00:00 TS 25.39 -60.15 966 948 P____________P AL091888 25.16 -60.14 TS 60 0 25.85 -60.15 TS 55 7 284
1888 NA NA 18:00:00 TS 25.47 -60.53 60 hurdat_atl 951 929 O____________O hurdat_atl AL091888 25.20 -60.50 TS 60 0 26.00 -60.60 TS 55 7 284
1888 NA NA 21:00:00 TS 25.57 -60.91 939 923 P____________P AL091888 25.25 -60.85 TS 60 0 26.20 -61.04 TS 57 7 286
1888 NA NA 1888-11-19 00:00:00 TS 25.67 -61.30 60 hurdat_atl 928 909 O____________O hurdat_atl AL091888 25.30 -61.20 TS 60 0 26.40 -61.50 TS 60 7 285
1888 NA NA 03:00:00 TS 25.75 -61.70 909 902 P____________P AL091888 25.35 -61.55 TS 60 0 26.55 -62.00 TS 62 7 283
1888 NA NA 06:00:00 TS 25.83 -62.10 60 hurdat_atl 902 897 O____________O hurdat_atl AL091888 25.40 -61.90 TS 60 0 26.70 -62.50 HU 65 7 284
1888 NA NA 09:00:00 TS 25.93 -62.48 897 897 P____________P AL091888 25.44 -62.24 TS 60 0 26.90 -62.96 HU 67 7 286
1888 NA NA 12:00:00 TS 26.03 -62.87 60 hurdat_atl 893 892 O____________O hurdat_atl AL091888 25.50 -62.60 TS 60 0 27.10 -63.40 HU 70 7 286
1888 NA NA 15:00:00 TS 26.14 -63.28 892 892 P____________P AL091888 25.58 -62.99 TS 60 0 27.25 -63.85 HU 70 8 287
1888 NA NA 18:00:00 TS 26.27 -63.70 60 hurdat_atl 904 900 O____________O hurdat_atl AL091888 25.70 -63.40 TS 60 0 27.40 -64.30 HU 70 8 291
1888 NA NA 21:00:00 TS 26.43 -64.12 907 905 P____________P AL091888 25.84 -63.80 TS 60 0 27.60 -64.75 HU 72 8 294
1888 NA NA 1888-11-20 00:00:00 TS 26.60 -64.53 60 hurdat_atl 923 921 O____________O hurdat_atl AL091888 26.00 -64.20 TS 60 0 27.80 -65.20 HU 75 8 293
1888 NA NA 03:00:00 TS 26.74 -64.96 929 929 P____________P AL091888 26.14 -64.61 TS 60 0 27.95 -65.65 HU 75 8 292
1888 NA NA 06:00:00 TS 26.90 -65.37 60 hurdat_atl 938 933 O____________O hurdat_atl AL091888 26.30 -65.00 TS 60 0 28.10 -66.10 HU 75 8 296
1888 NA NA 09:00:00 TS 27.11 -65.80 941 936 P____________P AL091888 26.51 -65.36 TS 60 0 28.31 -66.68 HU 77 8 300
1888 NA NA 12:00:00 TS 27.30 -66.13 60 hurdat_atl 947 943 O____________O hurdat_atl AL091888 26.70 -65.70 TS 60 0 28.50 -67.00 HU 80 5 307
1888 NA NA 15:00:00 TS 27.42 -66.27 949 949 P____________P AL091888 26.81 -66.05 TS 62 0 28.62 -66.70 HU 80 2 299
1888 NA NA 18:00:00 TS 27.39 -66.32 65 hurdat_atl 949 931 O____________O hurdat_atl AL091888 26.90 -66.40 HU 65 1 28.70 -66.10 HU 80 2 249
1888 NA NA 21:00:00 TS 27.34 -66.50 931 920 P____________P AL091888 26.98 -66.74 HU 65 1 28.76 -65.52 HU 82 5 258
1888 NA NA 1888-11-21 00:00:00 TS 27.29 -66.87 65 hurdat_atl 916 880 O____________O hurdat_atl AL091888 27.10 -67.10 HU 65 1 28.80 -65.00 HU 85 9 268
1888 NA NA 03:00:00 TS 27.30 -67.55 880 863 P_____________ AL091888 27.30 -67.55 HU 67 1 HU 10 282
1888 NA NA 06:00:00 TS 27.50 -68.00 70 hurdat_atl 866 858 O_____________ hurdat_atl AL091888 27.50 -68.00 HU 70 1 8 293
1888 NA NA 09:00:00 TS 27.60 -68.36 853 846 P_____________ AL091888 27.60 -68.36 HU 70 1 7 288
1888 NA NA 12:00:00 TS 27.70 -68.70 70 hurdat_atl 846 840 O_____________ hurdat_atl AL091888 27.70 -68.70 HU 70 1 7 295
1888 NA NA 15:00:00 TS 27.89 -69.08 845 841 P_____________ AL091888 27.89 -69.08 HU 70 1 8 300
1888 NA NA 18:00:00 TS 28.10 -69.50 70 hurdat_atl 848 838 O_____________ hurdat_atl AL091888 28.10 -69.50 HU 70 1 9 294
1888 NA NA 21:00:00 TS 28.25 -69.99 849 830 P_____________ AL091888 28.25 -69.99 HU 72 1 9 289
1888 NA NA 1888-11-22 00:00:00 TS 28.40 -70.50 75 hurdat_atl 830 799 O_____________ hurdat_atl AL091888 28.40 -70.50 HU 75 1 9 292
1888 NA NA 03:00:00 TS 28.58 -70.96 796 772 P_____________ AL091888 28.58 -70.96 HU 75 1 9 297
1888 NA NA 06:00:00 TS 28.80 -71.40 75 hurdat_atl 772 752 O_____________ hurdat_atl AL091888 28.80 -71.40 HU 75 1 9 301
1888 NA NA 09:00:00 TS 29.06 -71.87 750 720 P_____________ AL091888 29.06 -71.87 HU 77 1 9 302
1888 NA NA 12:00:00 TS 29.30 -72.30 80 hurdat_atl 720 686 O_____________ hurdat_atl AL091888 29.30 -72.30 HU 80 1 8 302
1888 NA NA 15:00:00 TS 29.47 -72.62 686 661 P_____________ AL091888 29.47 -72.62 HU 80 1 6 300
1888 NA NA 18:00:00 TS 29.60 -72.90 80 hurdat_atl 661 637 O_____________ hurdat_atl AL091888 29.60 -72.90 HU 80 1 5 295
1888 NA NA 21:00:00 TS 29.70 -73.19 637 614 P_____________ AL091888 29.70 -73.19 HU 80 1 6 291
1888 NA NA 1888-11-23 00:00:00 TS 29.80 -73.50 80 hurdat_atl 614 592 O_____________ hurdat_atl AL091888 29.80 -73.50 HU 80 1 6 292
1888 NA NA 03:00:00 TS 29.94 -73.86 588 554 P_____________ AL091888 29.94 -73.86 HU 82 1 7 296
1888 NA NA 06:00:00 TS 30.10 -74.20 85 hurdat_atl 554 519 O_____________ hurdat_atl AL091888 30.10 -74.20 HU 85 2 6 303
1888 NA NA 09:00:00 TS 30.28 -74.47 519 489 P_____________ AL091888 30.28 -74.47 HU 85 2 6 313
1888 NA NA 12:00:00 TS 30.50 -74.70 85 hurdat_atl 489 460 O_____________ hurdat_atl AL091888 30.50 -74.70 HU 85 2 6 321
1888 NA NA 15:00:00 TS 30.74 -74.91 460 422 P_____________ AL091888 30.74 -74.91 HU 85 2 6 325
1888 NA NA 18:00:00 TS 31.00 -75.10 85 hurdat_atl 422 393 O_____________ hurdat_atl AL091888 31.00 -75.10 HU 85 2 6 326
1888 NA NA 21:00:00 TS 31.24 -75.31 393 355 P_____________ AL091888 31.24 -75.31 HU 85 2 6 326
1888 NA NA 1888-11-24 00:00:00 TS 31.50 -75.50 85 hurdat_atl 355 317 O_____________ hurdat_atl AL091888 31.50 -75.50 HU 85 2 6 330
1888 NA NA 03:00:00 TS 31.79 -75.69 317 286 P_____________ AL091888 31.79 -75.69 HU 85 2 7 337
1888 NA NA 06:00:00 TS 32.10 -75.80 85 hurdat_atl 286 264 O_____________ hurdat_atl AL091888 32.10 -75.80 HU 85 2 6 352
1888 NA NA 09:00:00 TS 32.41 -75.79 264 234 P_____________ AL091888 32.41 -75.79 HU 85 2 6 8
1888 NA NA 12:00:00 TS 32.70 -75.70 85 hurdat_atl 234 217 O_____________ hurdat_atl AL091888 32.70 -75.70 HU 85 2 5 17
1888 NA NA 15:00:00 TS 32.91 -75.61 217 200 P_____________ AL091888 32.91 -75.61 HU 85 2 4 23
1888 NA NA 18:00:00 TS 33.10 -75.50 85 hurdat_atl 200 186 O_____________ hurdat_atl AL091888 33.10 -75.50 HU 85 2 5 26
1888 NA NA 21:00:00 TS 33.35 -75.35 176 171 P_____________ AL091888 33.35 -75.35 HU 85 2 6 27
1888 NA NA 1888-11-25 00:00:00 TS 33.60 -75.20 85 hurdat_atl 171 162 O_____________ hurdat_atl AL091888 33.60 -75.20 HU 85 2 5 25
1888 NA NA 03:00:00 TS 33.80 -75.10 162 155 P_____________ AL091888 33.80 -75.10 HU 85 2 4 23
1888 NA NA 06:00:00 TS 34.00 -75.00 85 hurdat_atl 155 148 O_____________ hurdat_atl AL091888 34.00 -75.00 HU 85 2 5 24
1888 NA NA 09:00:00 TS 34.22 -74.87 149 147 P_____________ AL091888 34.22 -74.87 HU 85 2 6 26
1888 NA NA 12:00:00 TS 34.50 -74.70 85 hurdat_atl 152 133 O_____________ hurdat_atl AL091888 34.50 -74.70 HU 85 2 7 27
1888 NA NA 15:00:00 TS 34.88 -74.47 133 126 P_____________ AL091888 34.88 -74.47 HU 85 2 9 27
1888 NA NA 18:00:00 TS 35.30 -74.20 85 hurdat_atl 129 125 O_____________ hurdat_atl AL091888 35.30 -74.20 HU 85 2 9 29
1888 NA NA 21:00:00 TS 35.69 -73.91 144 143 P_____________ AL091888 35.69 -73.91 HU 82 1 9 31
1888 NA NA 1888-11-26 00:00:00 ET 36.10 -73.60 80 hurdat_atl 173 173 O_____________ hurdat_atl AL091888 36.10 -73.60 EX 80 -4 10 30
1888 NA NA 03:00:00 ET 36.53 -73.31 211 211 P_____________ AL091888 36.53 -73.31 EX 80 -4 10 28
1888 NA NA 06:00:00 ET 37.00 -73.00 80 hurdat_atl 234 224 O_____________ hurdat_atl AL091888 37.00 -73.00 EX 80 -4 11 28
1888 NA NA 09:00:00 ET 37.53 -72.64 236 232 P_____________ AL091888 37.53 -72.64 EX 80 -4 11 29
1888 NA NA 12:00:00 ET 38.00 -72.30 80 hurdat_atl 240 231 O_____________ hurdat_atl AL091888 38.00 -72.30 EX 80 -4 8 30
1888 NA NA 15:00:00 ET 38.26 -72.10 232 232 P_____________ AL091888 38.26 -72.10 EX 80 -4 6 32
1888 NA NA 18:00:00 ET 38.50 -71.90 80 hurdat_atl 234 227 O_____________ hurdat_atl AL091888 38.50 -71.90 EX 80 -4 7 33
1888 NA NA 21:00:00 ET 38.89 -71.58 227 204 P_____________ AL091888 38.89 -71.58 EX 80 -4 10 34
1888 NA NA 1888-11-27 00:00:00 ET 39.30 -71.20 80 hurdat_atl 204 196 O_____________ hurdat_atl AL091888 39.30 -71.20 EX 80 -4 10 38
1888 NA NA 03:00:00 ET 39.66 -70.80 195 168 P_____________ AL091888 39.66 -70.80 EX 80 -4 9 41
1888 NA NA 06:00:00 ET 40.00 -70.40 80 hurdat_atl 168 142 O_____________ hurdat_atl AL091888 40.00 -70.40 EX 80 -4 9 41
1888 NA NA 09:00:00 ET 40.34 -70.03 145 114 P_____________ AL091888 40.34 -70.03 EX 80 -4 9 37
1888 NA NA 12:00:00 ET 40.70 -69.70 80 hurdat_atl 114 83 O_____________ hurdat_atl AL091888 40.70 -69.70 EX 80 -4 9 33
1888 NA NA 15:00:00 ET 41.08 -69.40 83 73 P_____________ AL091888 41.08 -69.40 EX 80 -4 9 30
1888 NA NA 18:00:00 ET 41.50 -69.10 80 hurdat_atl 77 77 O_____________ hurdat_atl AL091888 41.50 -69.10 EX 80 -4 10 29
1888 NA NA 21:00:00 ET 41.94 -68.76 99 99 P_____________ AL091888 41.94 -68.76 EX 80 -4 10 30
1888 NA NA 1888-11-28 00:00:00 ET 42.40 -68.40 80 hurdat_atl 147 147 O_____________ hurdat_atl AL091888 42.40 -68.40 EX 80 -4 11 31
1888 NA NA 03:00:00 ET 42.86 -68.02 147 118 P_____________ AL091888 42.86 -68.02 EX 80 -4 11 33
1888 NA NA 06:00:00 ET 43.30 -67.60 80 hurdat_atl 118 80 O_____________ hurdat_atl AL091888 43.30 -67.60 EX 80 -4 11 37
1888 NA NA 09:00:00 ET 43.71 -67.14 72 31 P_____________ AL091888 43.71 -67.14 EX 80 -4 11 42
1888 NA NA 12:00:00 ET 44.10 -66.60 80 hurdat_atl 31 0 O_____________ hurdat_atl AL091888 44.10 -66.60 EX 80 -4 11 49
1888 NA NA 15:00:00 ET 44.46 -65.95 7 0 P_____________ AL091888 44.46 -65.95 EX 75 -4 12 55
1888 NA NA 18:00:00 ET 44.80 -65.20 70 hurdat_atl 0 0 O_____________ hurdat_atl AL091888 44.80 -65.20 EX 70 -4 13 58
1888 NA NA 21:00:00 ET 45.16 -64.38 0 0 P_____________ AL091888 45.16 -64.38 EX 65 -4 14 60
1888 NA NA 1888-11-29 00:00:00 ET 45.50 -63.50 60 hurdat_atl 0 0 O_____________ hurdat_atl AL091888 45.50 -63.50 EX 60 -4 14 64
1888 NA NA 03:00:00 ET 45.77 -62.60 19 7 P_____________ AL091888 45.77 -62.60 EX 55 -4 13 68
1888 NA NA 06:00:00 ET 46.00 -61.70 50 hurdat_atl 7 0 O_____________ hurdat_atl AL091888 46.00 -61.70 EX 50 -4 13 70
1888 NA NA 09:00:00 ET 46.21 -60.81 0 0 P_____________ AL091888 46.21 -60.81 EX 47 -4 12 71
1888 NA NA 12:00:00 ET 46.40 -60.00 45 hurdat_atl 22 22 O_____________ hurdat_atl AL091888 46.40 -60.00 EX 45 -4 11 71
1888 NA NA 15:00:00 ET 46.56 -59.31 58 58 P_____________ AL091888 46.56 -59.31 EX 45 -4 9 71
1888 NA NA 18:00:00 ET 46.70 -58.70 45 hurdat_atl 99 88 O_____________ hurdat_atl AL091888 46.70 -58.70 EX 45 -4 9 74
1888 NA NA 21:00:00 ET 46.81 -58.11 91 77 P_____________ AL091888 46.81 -58.11 EX 45 -4 8 76
1888 NA NA 1888-11-30 00:00:00 ET 46.90 -57.50 45 hurdat_atl 77 55 O_____________ hurdat_atl AL091888 46.90 -57.50 EX 45 -4 9 77
1888 NA NA 03:00:00 ET 47.01 -56.84 55 13 P_____________ AL091888 47.01 -56.84 EX 45 -4 10 78
1888 NA NA 06:00:00 ET 47.10 -56.10 45 hurdat_atl 13 0 O_____________ hurdat_atl AL091888 47.10 -56.10 EX 45 -4 11 82
1888 NA NA 09:00:00 ET 47.16 -55.27 0 0 P_____________ AL091888 47.16 -55.27 EX 45 -4 12 85
1888 NA NA 12:00:00 ET 47.20 -54.30 45 hurdat_atl 22 0 O_____________ hurdat_atl AL091888 47.20 -54.30 EX 45 -4 14 88
1888 NA NA 15:00:00 ET 47.21 -53.19 0 0 P_____________ AL091888 47.21 -53.19 EX 45 -4 16 90
1888 NA NA 18:00:00 ET 47.20 -52.00 45 hurdat_atl 55 55 O_____________ hurdat_atl AL091888 47.20 -52.00 EX 45 -4 16 90
1888 NA NA 21:00:00 ET 47.20 -50.86 131 131 P_____________ AL091888 47.20 -50.86 EX 42 -4 16 90
1888 NA NA 1888-12-01 00:00:00 ET 47.20 -49.70 40 hurdat_atl 220 220 O_____________ hurdat_atl AL091888 47.20 -49.70 EX 40 -4 16 90
1888 NA NA 03:00:00 ET 47.20 -48.50 309 309 P_____________ AL091888 47.20 -48.50 EX 45 -4 16 90
1888 NA NA 06:00:00 ET 47.20 -47.30 50 hurdat_atl 398 398 O_____________ hurdat_atl AL091888 47.20 -47.30 EX 50 -4 16 90
1888 NA NA 09:00:00 ET 47.20 -46.14 488 488 P_____________ AL091888 47.20 -46.14 EX 52 -4 16 90
1888 NA NA 12:00:00 ET 47.20 -45.00 55 hurdat_atl 570 570 O_____________ hurdat_atl AL091888 47.20 -45.00 EX 55 -4 16 90
1888 NA NA 15:00:00 ET 47.19 -43.85 660 660 P_____________ AL091888 47.19 -43.85 EX 55 -4 16 90
1888 NA NA 18:00:00 ET 47.20 -42.70 55 hurdat_atl 742 742 O_____________ hurdat_atl AL091888 47.20 -42.70 EX 55 -4 16 88
1888 NA NA 21:00:00 ET 47.24 -41.55 825 825 P_____________ AL091888 47.24 -41.55 EX 57 -4 16 86
1888 NA NA 1888-12-02 00:00:00 ET 47.30 -40.40 60 hurdat_atl 913 913 O_____________ hurdat_atl AL091888 47.30 -40.40 EX 60 -4 16 86
1888 NA NA 03:00:00 ET 47.35 -39.25 1003 1002 P_____________ AL091888 47.35 -39.25 EX 60 -4 16 86
1888 NA NA 06:00:00 ET 47.40 -38.10 60 hurdat_atl 1084 1084 O_____________ hurdat_atl AL091888 47.40 -38.10 EX 60 -4 15 87
1888 NA NA 09:00:00 ET 47.42 -36.96 1165 1165 P_____________ AL091888 47.42 -36.96 EX 60 -4 16 86
1888 NA NA 12:00:00 ET 47.50 -35.80 60 hurdat_atl 1254 1254 O_____________ hurdat_atl AL091888 47.50 -35.80 EX 60 -4 16 80
1888 NA NA 15:00:00 ET 47.71 -34.57 1340 1340 P_____________ AL091888 47.71 -34.57 EX 60 -4 17 73
1888 NA NA 18:00:00 ET 48.00 -33.30 60 hurdat_atl 1433 O_____________ hurdat_atl AL091888 48.00 -33.30 EX 60 -4 18 71